ンジャメナ国際空港の過去48時間の天気

ンジャメナ国際空港 (Ndjamena)

現在時刻: 2/20 18:27 WAT (2/20 17:27 UTC) 以下の時間は現地時間です。

過去48時間のMETAR気象情報
時間 風向 風速(m/s) 視程 気温(℃) 湿度(%) 気圧(hPa) 天気現象
20 18:00 5 6000m 32 12 1009
20 17:00 北北西 5 6000m 33 11 1008
20 16:00 5 7000m 34 11 1008
20 15:00 5 8000m 33 12 1009
20 14:00 4 8000m 33 12 1010
20 13:00 北北東 5 8000m 32 13 1011
20 12:00 北北東 6 7000m 29 15 1012
20 11:00 北北東 7 7000m 27 16 1014
20 10:00 8 7000m 25 18 1014
20 09:00 7 6000m 22 23 1014
20 08:00 北北西 5 4500m 20 26 1013 風塵
20 07:00 北北西 3 2500m 18 30 1012 風塵
20 06:00 4 2500m 19 26 1012 風塵
20 05:00 4 1600m 20 26 1011 風塵
20 04:00 4 1600m 21 25 1011 風塵
20 03:00 4 1600m 22 23 1011 風塵
20 01:00 4 1400m 24 21 1012 風塵
20 00:00 5 1500m 25 21 1013 風塵
19 23:00 4 3200m 25 21 1013 風塵
19 22:00 北北東 4 4000m 25 19 1013 風塵
19 21:00 3 4000m 24 21 1012 風塵
19 20:00 北北西 3 4000m 25 19 1012 風塵
19 19:00 3 4000m 27 16 1011 風塵
19 18:00 5 5000m 29 14 1011 風塵
19 17:00 6 6000m 30 13 1010
19 16:00 6 6000m 30 13 1010
19 15:00 北北西 5 6000m 31 12 1010
19 14:00 7 7000m 31 13 1012
19 13:00 7 10km以上 31 13 1013
19 12:00 7 10km以上 30 14 1014
19 11:00 北北東 8 8000m 29 15 1015
19 10:00 北北東 8 8000m 26 18 1015
19 09:00 北北東 8 6000m 24 21 1015
19 08:00 6 5000m 21 25 1014 風塵
19 07:00 北北東 3 5000m 16 34 1014 風塵
19 06:00 3 10km以上 17 32 1013
19 05:00 3 10km以上 18 28 1013
19 04:00 3 10km以上 19 28 1013
19 03:00 5 10km以上 21 23 1013
19 02:00 4 10km以上 22 22 1013
19 01:00 5 10km以上 22 22 1013
19 00:00 4 10km以上 22 22 1014
18 23:00 4 10km以上 24 19 1014
18 22:00 4 10km以上 25 18 1014
18 21:00 北北西 3 8000m 25 19 1014
18 20:00 北北西 3 8000m 26 18 1013
18 19:00 3 8000m 26 17 1012
FTTJ 201700Z 01009KT 6000 NSC 32/M01 Q1009 NOSIG
FTTJ 201600Z 34009KT 6000 NSC 33/M02 Q1008 NOSIG
FTTJ 201500Z 35009KT 350V060 7000 NSC 34/M01 Q1008 NOSIG
FTTJ 201400Z 01009KT 010V080 8000 NSC 33/00 Q1009 NOSIG
FTTJ 201300Z 36008KT 360V100 8000 NSC 33/00 Q1010 NOSIG
FTTJ 201200Z 02009KT 020V100 8000 NSC 32/00 Q1011 NOSIG
FTTJ 201100Z 03012KT 030V100 7000 NSC 29/00 Q1012 NOSIG
FTTJ 201000Z 03013KT 030V090 7000 NSC 27/M01 Q1014 NOSIG
FTTJ 200900Z 01015KT 7000 NSC 25/M01 Q1014 NOSIG
FTTJ 200800Z 01014KT 6000 NSC 22/00 Q1014 NOSIG
FTTJ 200700Z 33009KT 330V030 4500 DU NSC 20/00 Q1013 NOSIG
FTTJ 200600Z 34006KT 2500 DU NSC 18/00 Q1012 NOSIG
FTTJ 200500Z 35007KT 2500 DU NSC 19/M01 Q1012 NOSIG
FTTJ 200400Z 36008KT 1600 DU NSC 20/00 Q1011 NOSIG
FTTJ 200300Z 36008KT 1600 DU NSC 21/00 Q1011 NOSIG
FTTJ 200200Z 36007KT 1600 DU NSC 22/00 Q1011 NOSIG
FTTJ 200000Z 36008KT 1400 R05/1200 DU NSC 24/00 Q1012 NOSIG
FTTJ 192300Z 01009KT 1500 DU NSC 25/01 Q1013 NOSIG
FTTJ 192200Z 01008KT 3200 DU NSC 25/01 Q1013 TEMPO 2500 DU
FTTJ 192100Z 02007KT 4000 DU NSC 25/00 Q1013 TEMPO 2500 DU
FTTJ 192000Z 35005KT 4000 DU NSC 24/00 Q1012 NOSIG
FTTJ 191900Z 34005KT 4000 DU NSC 25/00 Q1012 NOSIG
FTTJ 191800Z 35006KT 4000 DU NSC 27/M01 Q1011 NOSIG
FTTJ 191700Z 36009KT 5000 DU NSC 29/M01 Q1011 NOSIG
FTTJ 191600Z 36011KT 6000 NSC 30/M01 Q1010 NOSIG
FTTJ 191500Z 35012KT 350V050 6000 NSC 30/M01 Q1010 NOSIG
FTTJ 191400Z 34009KT 340V050 6000 NSC 31/M02 Q1010 NOSIG
FTTJ 191300Z 35013KT 350V050 7000 NSC 31/M01 Q1012 NOSIG
FTTJ 191200Z 01013KT 010V070 CAVOK 31/M01 Q1013 NOSIG
FTTJ 191100Z 01014KT CAVOK 30/00 Q1014 NOSIG
FTTJ 191000Z 02016KT 020V080 8000 NSC 29/00 Q1015 NOSIG
FTTJ 190900Z 02016KT 8000 NSC 26/00 Q1015 NOSIG
FTTJ 190800Z 02016KT 6000 NSC 24/00 Q1015 NOSIG
FTTJ 190700Z 01011KT 5000 DU NSC 21/00 Q1014 NOSIG
FTTJ 190600Z 02005KT 5000 DU NSC 16/00 Q1014 NOSIG
FTTJ 190500Z 01005KT CAVOK 17/00 Q1013 NOSIG
FTTJ 190400Z 01006KT CAVOK 18/M01 Q1013 NOSIG
FTTJ 190300Z 01006KT CAVOK 19/00 Q1013 NOSIG
FTTJ 190200Z 01009KT CAVOK 21/M01 Q1013 NOSIG
FTTJ 190100Z 36008KT CAVOK 22/M01 Q1013 NOSIG
FTTJ 190000Z 36009KT CAVOK 22/M01 Q1013 NOSIG
FTTJ 182300Z 36007KT CAVOK 22/M01 Q1014 NOSIG
FTTJ 182200Z 36007KT CAVOK 24/M01 Q1014 NOSIG
FTTJ 182100Z 36008KT CAVOK 25/M01 Q1014 NOSIG
FTTJ 182000Z 34006KT 8000 NSC 25/00 Q1014 NOSIG
FTTJ 181900Z 34006KT 8000 NSC 26/00 Q1013 NOSIG
FTTJ 181800Z 01005KT 8000 NSC 26/M01 Q1012 NOSIG